createdAt,value
2023-02-07T00:00:17.381Z,99672.03
2023-02-07T00:02:45.531Z,99663.56
2023-02-07T00:05:13.044Z,99665.50
2023-02-07T00:07:39.744Z,99669.44
2023-02-07T00:10:07.636Z,99675.38
2023-02-07T00:12:34.899Z,99677.06
2023-02-07T00:15:01.628Z,99686.69
2023-02-07T00:17:31.246Z,99688.47
2023-02-07T00:19:58.220Z,99678.66
2023-02-07T00:22:24.958Z,99677.50
2023-02-07T00:24:51.765Z,99679.84
2023-02-07T00:27:18.803Z,99681.69
2023-02-07T00:29:45.525Z,99690.16
2023-02-07T00:32:12.183Z,99693.91
2023-02-07T00:34:38.995Z,99686.97
2023-02-07T00:37:06.726Z,99688.13
2023-02-07T00:39:33.942Z,99685.84
2023-02-07T00:42:00.680Z,99691.63
2023-02-07T00:44:27.367Z,99698.06
2023-02-07T00:46:54.040Z,99699.88
2023-02-07T00:49:20.728Z,99710.88
2023-02-07T00:51:47.448Z,99710.19
2023-02-07T00:54:14.088Z,99723.94
2023-02-07T00:56:40.801Z,99729.44
2023-02-07T00:59:08.079Z,99731.13
2023-02-07T01:01:34.733Z,99727.38
2023-02-07T01:04:01.579Z,99727.75
2023-02-07T01:06:29.444Z,99729.72
2023-02-07T01:08:58.024Z,99730.53
2023-02-07T01:11:24.752Z,99748.72
2023-02-07T01:13:51.504Z,99736.28
2023-02-07T01:16:27.147Z,99740.47
2023-02-07T01:18:54.479Z,99732.56
2023-02-07T01:21:24.861Z,99747.97
2023-02-07T01:23:52.037Z,99733.38
2023-02-07T01:26:18.783Z,99737.19
2023-02-07T01:28:45.424Z,99728.91
2023-02-07T01:31:13.686Z,99723.84
2023-02-07T01:33:40.559Z,99722.34
2023-02-07T01:36:09.774Z,99731.09
2023-02-07T01:38:36.504Z,99731.06
2023-02-07T01:41:03.969Z,99722.25
2023-02-07T01:43:31.466Z,99725.59
2023-02-07T01:45:58.157Z,99728.19
2023-02-07T01:48:31.824Z,99724.28
2023-02-07T01:51:04.431Z,99729.19
2023-02-07T01:53:34.857Z,99726.19
2023-02-07T01:56:06.970Z,99719.75
2023-02-07T01:58:34.319Z,99710.63
2023-02-07T02:01:03.445Z,99704.56
2023-02-07T02:03:30.119Z,99696.94
2023-02-07T02:05:56.940Z,99699.88
2023-02-07T02:08:24.825Z,99696.06
2023-02-07T02:11:39.212Z,99697.22
2023-02-07T02:14:29.118Z,99695.66
2023-02-07T02:17:33.570Z,99687.06
2023-02-07T02:20:47.311Z,99680.56
2023-02-07T02:24:15.926Z,99681.38
2023-02-07T02:26:54.203Z,99691.25
2023-02-07T02:30:10.253Z,99680.47
2023-02-07T02:33:07.442Z,99683.81
2023-02-07T02:36:01.863Z,99674.00
2023-02-07T02:38:59.896Z,99670.78
2023-02-07T02:41:38.677Z,99668.13
2023-02-07T02:44:13.479Z,99664.22
2023-02-07T02:46:42.006Z,99661.41
2023-02-07T02:49:11.748Z,99672.47
2023-02-07T02:51:38.442Z,99664.81
2023-02-07T02:54:25.035Z,99656.13
2023-02-07T02:57:28.856Z,99630.75
2023-02-07T03:00:38.361Z,99614.16
2023-02-07T03:03:46.639Z,99623.00
2023-02-07T03:06:38.871Z,99613.91
2023-02-07T03:09:32.827Z,99626.09
2023-02-07T03:12:25.294Z,99641.09
2023-02-07T03:15:07.414Z,99656.25
2023-02-07T03:17:51.807Z,99675.63
2023-02-07T03:20:31.871Z,99673.00
2023-02-07T03:23:02.356Z,99658.59
2023-02-07T03:25:31.079Z,99637.69
2023-02-07T03:27:57.853Z,99652.94
2023-02-07T03:30:29.109Z,99658.91
2023-02-07T03:33:02.122Z,99665.44
2023-02-07T03:35:49.569Z,99667.31
2023-02-07T03:38:16.775Z,99663.03
2023-02-07T03:40:47.102Z,99661.09
2023-02-07T03:43:16.922Z,99657.25
2023-02-07T03:45:43.775Z,99641.84
2023-02-07T03:48:10.836Z,99634.63
2023-02-07T03:50:38.102Z,99641.16
2023-02-07T03:53:04.774Z,99629.75
2023-02-07T03:55:32.366Z,99626.63
2023-02-07T03:57:59.210Z,99644.13
2023-02-07T04:00:25.874Z,99645.69
2023-02-07T04:02:52.563Z,99640.81
2023-02-07T04:05:19.227Z,99657.16
2023-02-07T04:07:45.980Z,99657.00
2023-02-07T04:10:12.603Z,99661.78
2023-02-07T04:12:39.371Z,99667.88
2023-02-07T04:15:06.917Z,99670.63
2023-02-07T04:17:33.866Z,99669.88
2023-02-07T04:20:01.706Z,99669.50
2023-02-07T04:22:29.471Z,99667.16
2023-02-07T04:24:56.139Z,99665.72
2023-02-07T04:27:23.197Z,99666.47
2023-02-07T04:29:50.242Z,99665.63
2023-02-07T04:32:17.098Z,99668.34
2023-02-07T04:34:43.821Z,99664.13
2023-02-07T04:37:10.509Z,99640.66
2023-02-07T04:39:37.174Z,99638.59
2023-02-07T04:42:03.891Z,99645.56
2023-02-07T04:44:30.419Z,99645.59
2023-02-07T04:46:57.045Z,99640.97
2023-02-07T04:49:23.676Z,99641.72
2023-02-07T04:51:50.424Z,99648.84
2023-02-07T04:54:17.071Z,99652.97
2023-02-07T04:56:43.753Z,99658.81
2023-02-07T04:59:10.407Z,99669.66
2023-02-07T05:01:36.957Z,99667.88
2023-02-07T05:04:03.618Z,99672.03
2023-02-07T05:06:30.231Z,99663.25
2023-02-07T05:08:57.044Z,99662.47
2023-02-07T05:11:23.655Z,99674.59
2023-02-07T05:13:50.279Z,99673.28
2023-02-07T05:16:16.991Z,99688.78
2023-02-07T05:18:43.636Z,99680.81
2023-02-07T05:21:11.374Z,99685.03
2023-02-07T05:23:38.309Z,99675.00
2023-02-07T05:26:05.186Z,99676.09
2023-02-07T05:28:31.839Z,99668.50
2023-02-07T05:30:58.554Z,99667.81
2023-02-07T05:33:25.244Z,99687.41
2023-02-07T05:35:51.915Z,99680.94
2023-02-07T05:38:19.651Z,99686.72
2023-02-07T05:40:47.327Z,99694.34
2023-02-07T05:43:14.234Z,99703.91
2023-02-07T05:45:41.426Z,99707.38
2023-02-07T05:48:08.630Z,99711.47
2023-02-07T05:50:35.367Z,99705.00
2023-02-07T05:53:03.008Z,99710.03
2023-02-07T05:55:29.582Z,99715.31
2023-02-07T05:57:56.363Z,99721.38
2023-02-07T06:00:23.110Z,99717.53
2023-02-07T06:02:49.818Z,99714.81
2023-02-07T06:05:18.308Z,99711.06
2023-02-07T06:07:44.921Z,99708.09
2023-02-07T06:10:12.615Z,99730.16
2023-02-07T06:12:39.508Z,99724.81
2023-02-07T06:15:06.797Z,99727.03
2023-02-07T06:17:33.546Z,99725.94
2023-02-07T06:20:00.202Z,99738.94
2023-02-07T06:22:27.006Z,99729.03
2023-02-07T06:24:53.632Z,99733.59
2023-02-07T06:27:21.109Z,99733.28
2023-02-07T06:29:47.772Z,99731.84
2023-02-07T06:32:14.398Z,99731.59
2023-02-07T06:34:41.059Z,99722.16
2023-02-07T06:37:07.742Z,99728.69
2023-02-07T06:39:34.366Z,99732.16
2023-02-07T06:42:01.063Z,99732.16
2023-02-07T06:44:27.727Z,99745.75
2023-02-07T06:46:54.360Z,99743.75
2023-02-07T06:49:20.984Z,99746.03
2023-02-07T06:51:47.624Z,99739.53
2023-02-07T06:54:14.292Z,99723.81
2023-02-07T06:56:40.919Z,99728.13
2023-02-07T06:59:07.601Z,99727.31
2023-02-07T07:01:34.523Z,99721.28
2023-02-07T07:04:01.251Z,99724.31
2023-02-07T07:06:27.954Z,99727.34
2023-02-07T07:08:54.663Z,99725.06
2023-02-07T07:11:21.308Z,99722.00
2023-02-07T07:13:47.946Z,99723.00
2023-02-07T07:16:14.749Z,99727.56
2023-02-07T07:18:41.683Z,99728.22
2023-02-07T07:21:09.067Z,99726.28
2023-02-07T07:23:35.756Z,99731.53
2023-02-07T07:26:02.417Z,99735.28
2023-02-07T07:28:29.041Z,99737.97
2023-02-07T07:30:55.798Z,99740.66
2023-02-07T07:33:22.439Z,99743.66
2023-02-07T07:35:49.055Z,99745.91
2023-02-07T07:38:15.654Z,99745.50
2023-02-07T07:40:42.283Z,99743.09
2023-02-07T07:43:08.865Z,99732.88
2023-02-07T07:45:35.563Z,99737.41
2023-02-07T07:48:02.221Z,99725.19
2023-02-07T07:50:28.892Z,99718.31
2023-02-07T07:52:55.532Z,99728.56
2023-02-07T07:55:22.128Z,99740.44
2023-02-07T07:57:48.740Z,99744.91
2023-02-07T08:00:16.070Z,99739.84
2023-02-07T08:02:42.958Z,99748.97
2023-02-07T08:05:13.185Z,99750.75
2023-02-07T08:07:40.271Z,99748.47
2023-02-07T08:10:06.995Z,99746.22
2023-02-07T08:12:34.010Z,99734.47
2023-02-07T08:15:00.632Z,99723.69
2023-02-07T08:17:27.238Z,99727.84
2023-02-07T08:19:53.837Z,99729.44
2023-02-07T08:22:20.572Z,99730.09
2023-02-07T08:24:47.205Z,99728.97
2023-02-07T08:27:13.828Z,99720.13
2023-02-07T08:29:40.469Z,99716.94
2023-02-07T08:32:07.166Z,99719.94
2023-02-07T08:34:37.517Z,99714.97
2023-02-07T08:37:06.243Z,99714.50
2023-02-07T08:39:36.679Z,99724.75
2023-02-07T08:42:05.482Z,99724.66
2023-02-07T08:44:32.402Z,99722.78
2023-02-07T08:46:59.044Z,99731.47
2023-02-07T08:49:25.929Z,99727.22
2023-02-07T08:51:52.854Z,99729.50
2023-02-07T08:54:19.720Z,99736.19
2023-02-07T08:56:46.596Z,99733.63
2023-02-07T08:59:13.257Z,99731.38
2023-02-07T09:01:40.066Z,99733.06
2023-02-07T09:04:06.735Z,99726.97
2023-02-07T09:06:33.351Z,99734.59
2023-02-07T09:09:00.184Z,99726.00
2023-02-07T09:11:26.986Z,99738.63
2023-02-07T09:13:53.643Z,99734.56
2023-02-07T09:16:20.320Z,99740.03
2023-02-07T09:18:46.929Z,99745.28
2023-02-07T09:21:13.555Z,99744.56
2023-02-07T09:23:40.190Z,99740.63
2023-02-07T09:26:08.485Z,99736.97
2023-02-07T09:28:35.983Z,99733.34
2023-02-07T09:31:08.683Z,99729.44
2023-02-07T09:33:35.441Z,99736.59
2023-02-07T09:36:02.209Z,99734.25
2023-02-07T09:38:29.209Z,99735.72
2023-02-07T09:40:57.917Z,99733.25
2023-02-07T09:44:07.593Z,99728.94
2023-02-07T09:46:43.989Z,99732.56
2023-02-07T09:49:54.094Z,99726.88
2023-02-07T09:52:26.884Z,99730.22
2023-02-07T09:54:55.965Z,99730.97
2023-02-07T09:57:31.689Z,99726.06
2023-02-07T10:00:26.897Z,99720.63
2023-02-07T10:03:15.107Z,99725.03
2023-02-07T10:17:35.642Z,99717.41
2023-02-07T10:20:26.674Z,99722.38
2023-02-07T10:23:15.209Z,99720.31
2023-02-07T10:26:11.817Z,99712.28
2023-02-07T10:29:05.446Z,99725.16
2023-02-07T10:31:34.356Z,99717.72
2023-02-07T10:34:10.723Z,99717.72
2023-02-07T10:36:42.600Z,99723.66
2023-02-07T10:39:23.025Z,99717.31
2023-02-07T10:41:49.647Z,99713.88
2023-02-07T10:44:20.348Z,99725.25
2023-02-07T10:46:55.758Z,99721.91
2023-02-07T10:49:26.146Z,99724.16
2023-02-07T10:51:56.183Z,99719.31
2023-02-07T10:54:24.577Z,99706.94
2023-02-07T10:57:02.839Z,99698.56
2023-02-07T10:59:45.894Z,99706.44
2023-02-07T11:02:52.413Z,99699.25
2023-02-07T11:05:31.132Z,99690.28
2023-02-07T11:08:18.665Z,99684.75
2023-02-07T11:10:46.733Z,99686.41
2023-02-07T11:13:17.235Z,99672.59
2023-02-07T11:16:01.121Z,99675.50
2023-02-07T11:19:04.188Z,99666.97
2023-02-07T11:21:48.739Z,99668.16
2023-02-07T11:24:25.265Z,99677.50
2023-02-07T11:27:15.721Z,99661.31
2023-02-07T11:30:16.415Z,99661.31
2023-02-07T11:32:44.115Z,99657.38
2023-02-07T11:35:20.974Z,99654.16
2023-02-07T11:38:00.371Z,99646.97
2023-02-07T11:40:37.456Z,99651.06
2023-02-07T11:43:13.896Z,99653.31
2023-02-07T11:45:44.784Z,99644.88
2023-02-07T11:48:30.913Z,99645.13
2023-02-07T11:51:00.987Z,99639.97
2023-02-07T11:53:45.588Z,99632.13
2023-02-07T11:56:25.546Z,99635.03
2023-02-07T11:58:54.640Z,99630.41
2023-02-07T12:01:29.321Z,99637.72
2023-02-07T12:04:02.425Z,99631.94
2023-02-07T12:06:47.987Z,99636.78
2023-02-07T12:09:31.186Z,99626.38
2023-02-07T12:12:00.906Z,99619.81
2023-02-07T12:14:41.860Z,99621.78
2023-02-07T12:17:17.564Z,99617.56
2023-02-07T12:20:17.052Z,99608.78
2023-02-07T12:23:21.459Z,99605.22
2023-02-07T12:25:58.452Z,99611.78
2023-02-07T12:28:34.886Z,99602.44
2023-02-07T12:31:10.673Z,99604.38
2023-02-07T12:33:48.807Z,99600.63
2023-02-07T12:36:29.895Z,99608.56
2023-02-07T12:39:05.661Z,99591.25
2023-02-07T12:41:39.940Z,99593.53
2023-02-07T12:44:26.390Z,99594.16
2023-02-07T12:47:14.033Z,99594.38
2023-02-07T12:50:02.618Z,99588.47
2023-02-07T12:53:05.587Z,99594.81
2023-02-07T12:56:19.253Z,99586.97
2023-02-07T12:59:04.133Z,99586.34
2023-02-07T13:01:53.528Z,99590.63
2023-02-07T13:04:49.664Z,99588.25
2023-02-07T13:07:49.567Z,99589.09
2023-02-07T13:10:48.687Z,99585.34
2023-02-07T13:13:27.967Z,99577.06
2023-02-07T13:16:08.314Z,99580.31
2023-02-07T13:18:57.274Z,99590.53
2023-02-07T13:21:32.650Z,99589.66
2023-02-07T13:24:04.919Z,99591.78
2023-02-07T13:26:34.763Z,99583.09
2023-02-07T13:29:04.981Z,99589.31
2023-02-07T13:31:41.660Z,99597.81
2023-02-07T13:34:16.477Z,99589.56
2023-02-07T13:36:45.340Z,99594.13
2023-02-07T13:39:47.397Z,99595.84
2023-02-07T13:42:28.881Z,99597.13
2023-02-07T13:45:23.511Z,99603.78
2023-02-07T13:48:15.332Z,99596.81
2023-02-07T13:50:54.280Z,99601.25
2023-02-07T13:53:33.923Z,99602.00
2023-02-07T13:56:09.466Z,99596.19
2023-02-07T13:59:15.252Z,99597.81
2023-02-07T14:01:51.410Z,99591.56
2023-02-07T14:04:19.718Z,99598.88
2023-02-07T14:07:11.896Z,99597.38
2023-02-07T14:09:47.960Z,99602.19
2023-02-07T14:12:39.515Z,99598.13
2023-02-07T14:15:30.591Z,99595.44
2023-02-07T14:18:00.933Z,99601.16
2023-02-07T14:20:36.290Z,99599.50
2023-02-07T14:23:14.701Z,99600.19
2023-02-07T14:25:43.305Z,99605.06
2023-02-07T14:28:36.106Z,99598.94
2023-02-07T14:31:19.647Z,99602.94
2023-02-07T14:34:10.620Z,99602.19
2023-02-07T14:36:37.544Z,99590.69
2023-02-07T14:39:13.259Z,99594.31
2023-02-07T14:41:43.066Z,99592.84
2023-02-07T14:44:25.582Z,99595.97
2023-02-07T14:46:56.084Z,99595.97
2023-02-07T14:49:51.162Z,99590.25
2023-02-07T14:52:33.161Z,99596.19
2023-02-07T14:55:15.558Z,99592.53
2023-02-07T14:58:12.275Z,99589.00
2023-02-07T15:00:50.252Z,99595.22
2023-02-07T15:03:19.078Z,99586.75
2023-02-07T15:06:03.199Z,99588.13
2023-02-07T15:08:34.440Z,99592.19
2023-02-07T15:11:06.567Z,99590.16
2023-02-07T15:13:39.127Z,99591.44
2023-02-07T15:16:18.566Z,99588.03
2023-02-07T15:19:08.448Z,99589.75
2023-02-07T15:21:39.499Z,99587.91
2023-02-07T15:24:07.577Z,99589.31
2023-02-07T15:26:35.655Z,99596.53
2023-02-07T15:29:05.885Z,99584.72
2023-02-07T15:31:39.233Z,99585.91
2023-02-07T15:34:12.503Z,99587.72
2023-02-07T15:36:42.254Z,99592.22
2023-02-07T15:39:34.928Z,99595.88
2023-02-07T15:42:01.675Z,99594.81
2023-02-07T15:44:36.120Z,99596.53
2023-02-07T15:47:06.842Z,99596.53
2023-02-07T15:49:40.737Z,99595.88
2023-02-07T15:52:41.610Z,99591.06
2023-02-07T15:55:48.043Z,99597.28
2023-02-07T15:58:38.673Z,99601.69
2023-02-07T16:01:14.111Z,99605.31
2023-02-07T16:03:45.974Z,99603.09
2023-02-07T16:06:21.353Z,99606.72
2023-02-07T16:08:54.130Z,99597.59
2023-02-07T16:11:26.650Z,99601.91
2023-02-07T16:13:54.475Z,99599.09
2023-02-07T16:16:51.490Z,99595.88
2023-02-07T16:19:26.391Z,99593.94
2023-02-07T16:22:07.368Z,99589.34
2023-02-07T16:24:36.878Z,99600.81
2023-02-07T16:27:05.456Z,99615.56
2023-02-07T16:29:34.565Z,99628.03
2023-02-07T16:32:01.671Z,99629.94
2023-02-07T16:34:28.310Z,99627.34
2023-02-07T16:36:56.404Z,99634.31
2023-02-07T16:39:23.440Z,99633.34
2023-02-07T16:42:13.834Z,99643.75
2023-02-07T16:44:41.223Z,99646.84
2023-02-07T16:47:09.868Z,99654.66
2023-02-07T16:49:38.153Z,99652.06
2023-02-07T16:52:05.071Z,99655.91
2023-02-07T16:54:31.743Z,99657.09
2023-02-07T16:57:03.782Z,99666.72
2023-02-07T16:59:30.697Z,99671.97
2023-02-07T17:01:57.390Z,99667.81
2023-02-07T17:04:24.024Z,99670.31
2023-02-07T17:06:51.227Z,99675.28
2023-02-07T17:09:24.927Z,99677.94
2023-02-07T17:11:53.525Z,99670.00
2023-02-07T17:14:21.030Z,99668.59
2023-02-07T17:16:48.208Z,99670.19
2023-02-07T17:19:21.330Z,99674.34
2023-02-07T17:21:48.004Z,99674.88
2023-02-07T17:24:15.229Z,99678.56
2023-02-07T17:26:46.189Z,99681.25
2023-02-07T17:29:14.431Z,99677.56
2023-02-07T17:31:42.119Z,99683.66
2023-02-07T17:34:08.933Z,99681.59
2023-02-07T17:36:36.226Z,99674.22
2023-02-07T17:39:03.702Z,99678.06
2023-02-07T17:41:31.417Z,99680.50
2023-02-07T17:43:58.160Z,99689.72
2023-02-07T17:46:27.003Z,99686.78
2023-02-07T17:48:54.722Z,99682.66
2023-02-07T17:51:23.993Z,99685.53
2023-02-07T17:53:51.195Z,99676.66
2023-02-07T17:56:25.265Z,99674.47
2023-02-07T17:58:53.110Z,99676.84
2023-02-07T18:01:20.017Z,99686.19
2023-02-07T18:03:48.190Z,99677.97
2023-02-07T18:06:16.583Z,99680.81
2023-02-07T18:08:44.341Z,99690.19
2023-02-07T18:11:14.257Z,99687.34
2023-02-07T18:13:42.187Z,99688.50
2023-02-07T18:16:08.949Z,99685.00
2023-02-07T18:18:35.630Z,99682.69
2023-02-07T18:21:03.639Z,99685.34
2023-02-07T18:23:30.269Z,99684.25
2023-02-07T18:25:56.892Z,99685.50
2023-02-07T18:28:23.547Z,99679.50
2023-02-07T18:30:50.307Z,99683.59
2023-02-07T18:33:19.479Z,99680.78
2023-02-07T18:35:46.625Z,99683.28
2023-02-07T18:38:13.208Z,99690.16
2023-02-07T18:40:40.989Z,99692.56
2023-02-07T18:43:07.764Z,99689.03
2023-02-07T18:45:36.549Z,99692.28
2023-02-07T18:48:03.773Z,99695.88
2023-02-07T18:50:30.429Z,99703.41
2023-02-07T18:52:57.018Z,99701.56
2023-02-07T18:55:23.684Z,99695.75
2023-02-07T18:57:50.288Z,99689.72
2023-02-07T19:00:16.991Z,99700.13
2023-02-07T19:02:43.659Z,99694.09
2023-02-07T19:05:10.612Z,99698.28
2023-02-07T19:07:37.195Z,99698.97
2023-02-07T19:10:04.038Z,99698.84
2023-02-07T19:12:31.348Z,99699.31
2023-02-07T19:14:58.042Z,99700.63
2023-02-07T19:17:25.325Z,99700.53
2023-02-07T19:19:52.629Z,99705.50
2023-02-07T19:22:30.083Z,99708.16
2023-02-07T19:25:01.781Z,99709.31
2023-02-07T19:27:28.416Z,99707.19
2023-02-07T19:29:55.029Z,99712.06
2023-02-07T19:32:21.644Z,99715.09
2023-02-07T19:34:49.203Z,99708.44
2023-02-07T19:37:16.726Z,99711.75
2023-02-07T19:39:46.100Z,99709.88
2023-02-07T19:42:13.283Z,99723.13
2023-02-07T19:44:39.881Z,99709.88
2023-02-07T19:47:06.644Z,99718.75
2023-02-07T19:49:33.292Z,99715.66
2023-02-07T19:51:59.939Z,99717.44
2023-02-07T19:54:26.584Z,99725.84
2023-02-07T19:56:53.368Z,99714.66
2023-02-07T19:59:20.027Z,99717.44
2023-02-07T20:01:46.690Z,99711.75
2023-02-07T20:04:13.442Z,99713.97
2023-02-07T20:06:40.272Z,99713.78
2023-02-07T20:09:07.638Z,99713.16
2023-02-07T20:11:34.910Z,99710.31
2023-02-07T20:14:06.767Z,99712.53
2023-02-07T20:16:36.286Z,99704.88
2023-02-07T20:19:05.841Z,99717.31
2023-02-07T20:21:34.377Z,99714.66
2023-02-07T20:24:01.825Z,99717.75
2023-02-07T20:26:40.464Z,99718.00
2023-02-07T20:29:10.888Z,99724.59
2023-02-07T20:31:38.251Z,99731.22
2023-02-07T20:34:05.604Z,99727.00
2023-02-07T20:36:33.766Z,99726.22
2023-02-07T20:39:00.822Z,99739.69
2023-02-07T20:41:29.381Z,99729.94
2023-02-07T20:44:03.664Z,99733.75
2023-02-07T20:46:31.847Z,99728.88
2023-02-07T20:49:00.549Z,99736.47
2023-02-07T20:51:29.201Z,99730.78
2023-02-07T20:53:58.828Z,99720.00
2023-02-07T20:56:26.172Z,99736.72
2023-02-07T20:58:54.436Z,99732.19
2023-02-07T21:01:27.278Z,99735.16
2023-02-07T21:03:55.758Z,99725.75
2023-02-07T21:06:24.025Z,99727.13
2023-02-07T21:09:00.847Z,99729.56
2023-02-07T21:11:30.303Z,99727.09
2023-02-07T21:13:57.138Z,99726.06
2023-02-07T21:16:23.837Z,99728.34
2023-02-07T21:18:50.674Z,99726.13
2023-02-07T21:21:18.289Z,99714.69
2023-02-07T21:23:45.190Z,99715.81
2023-02-07T21:26:14.101Z,99721.53
2023-02-07T21:28:40.816Z,99723.91
2023-02-07T21:31:16.140Z,99730.09
2023-02-07T21:33:42.850Z,99722.03
2023-02-07T21:36:15.522Z,99729.69
2023-02-07T21:38:45.089Z,99724.25
2023-02-07T21:41:13.324Z,99719.00
2023-02-07T21:43:42.931Z,99727.00
2023-02-07T21:46:18.017Z,99726.00
2023-02-07T21:48:49.610Z,99729.81
2023-02-07T21:51:22.202Z,99726.53
2023-02-07T21:53:50.732Z,99717.41
2023-02-07T21:56:24.348Z,99717.13
2023-02-07T21:59:00.367Z,99713.75
2023-02-07T22:01:28.267Z,99718.63
2023-02-07T22:03:58.551Z,99721.28
2023-02-07T22:06:25.623Z,99720.16
2023-02-07T22:08:56.177Z,99722.97
2023-02-07T22:11:25.180Z,99732.03
2023-02-07T22:13:52.989Z,99733.94
2023-02-07T22:16:21.915Z,99730.84
2023-02-07T22:18:48.935Z,99728.16
2023-02-07T22:21:19.176Z,99735.81
2023-02-07T22:23:46.039Z,99734.69
2023-02-07T22:26:14.363Z,99728.22
2023-02-07T22:28:42.050Z,99725.59
2023-02-07T22:31:14.448Z,99725.66
2023-02-07T22:33:41.802Z,99734.38
2023-02-07T22:36:17.419Z,99737.06
2023-02-07T22:38:44.074Z,99732.53
2023-02-07T22:41:10.680Z,99740.50
2023-02-07T22:43:39.384Z,99739.88
2023-02-07T22:46:07.594Z,99741.81
2023-02-07T22:48:34.910Z,99747.53
2023-02-07T22:51:15.053Z,99735.44
2023-02-07T22:53:42.085Z,99736.13
2023-02-07T22:56:09.250Z,99738.06
2023-02-07T22:58:36.491Z,99743.78
2023-02-07T23:01:04.367Z,99741.09
2023-02-07T23:03:31.232Z,99747.94
2023-02-07T23:05:58.112Z,99757.50
2023-02-07T23:08:24.723Z,99759.66
2023-02-07T23:10:51.359Z,99757.06
2023-02-07T23:13:18.068Z,99758.56
2023-02-07T23:15:47.958Z,99762.69
2023-02-07T23:18:15.714Z,99767.22
2023-02-07T23:20:46.106Z,99768.25
2023-02-07T23:23:13.461Z,99767.75
2023-02-07T23:25:46.920Z,99768.34
2023-02-07T23:28:14.277Z,99770.66
2023-02-07T23:30:41.480Z,99764.97
2023-02-07T23:33:09.682Z,99763.41
2023-02-07T23:35:36.580Z,99761.63
2023-02-07T23:38:03.832Z,99765.47
2023-02-07T23:40:30.471Z,99762.75
2023-02-07T23:42:57.591Z,99761.22
2023-02-07T23:45:25.179Z,99763.44
2023-02-07T23:47:51.966Z,99765.84
2023-02-07T23:50:18.755Z,99763.50
2023-02-07T23:52:45.803Z,99763.16
2023-02-07T23:55:12.514Z,99770.41
2023-02-07T23:57:39.161Z,99758.59
